createdAt,value
2023-02-14T00:01:17.940Z,11.88
2023-02-14T00:03:44.502Z,11.93
2023-02-14T00:06:14.631Z,13.70
2023-02-14T00:08:44.702Z,16.00
2023-02-14T00:11:13.208Z,11.15
2023-02-14T00:13:39.845Z,9.52
2023-02-14T00:16:06.537Z,11.77
2023-02-14T00:18:51.904Z,12.45
2023-02-14T00:21:18.402Z,11.18
2023-02-14T00:23:45.265Z,11.13
2023-02-14T00:26:14.980Z,9.75
2023-02-14T00:28:43.480Z,10.95
2023-02-14T00:31:10.492Z,9.30
2023-02-14T00:33:37.412Z,8.30
2023-02-14T00:36:05.380Z,7.25
2023-02-14T00:38:33.758Z,10.93
2023-02-14T00:41:00.569Z,9.25
2023-02-14T00:43:27.197Z,7.72
2023-02-14T00:45:53.699Z,7.70
2023-02-14T00:48:20.289Z,9.35
2023-02-14T00:50:47.242Z,7.70
2023-02-14T00:53:14.834Z,10.95
2023-02-14T00:55:41.837Z,9.07
2023-02-14T00:58:08.340Z,9.30
2023-02-14T01:00:34.835Z,10.88
2023-02-14T01:03:01.397Z,13.13
2023-02-14T01:05:29.140Z,11.52
2023-02-14T01:07:57.395Z,11.82
2023-02-14T01:10:23.847Z,10.43
2023-02-14T01:12:50.973Z,9.60
2023-02-14T01:15:17.576Z,8.75
2023-02-14T01:17:44.075Z,10.07
2023-02-14T01:20:10.782Z,11.30
2023-02-14T01:22:38.003Z,9.75
2023-02-14T01:25:06.559Z,8.95
2023-02-14T01:27:33.189Z,8.07
2023-02-14T01:29:59.663Z,9.18
2023-02-14T01:32:26.796Z,10.68
2023-02-14T01:34:53.377Z,9.55
2023-02-14T01:37:19.832Z,11.05
2023-02-14T01:39:46.312Z,9.35
2023-02-14T01:42:14.568Z,9.18
2023-02-14T01:44:41.306Z,10.82
2023-02-14T01:47:10.368Z,13.07
2023-02-14T01:50:08.073Z,10.20
2023-02-14T01:52:43.845Z,11.75
2023-02-14T01:55:15.440Z,10.45
2023-02-14T01:57:48.013Z,9.88
2023-02-14T02:00:35.193Z,10.55
2023-02-14T02:03:05.431Z,12.50
2023-02-14T02:05:32.183Z,10.18
2023-02-14T02:08:00.397Z,11.27
2023-02-14T02:10:28.364Z,10.85
2023-02-14T02:12:55.541Z,9.43
2023-02-14T02:15:26.074Z,10.02
2023-02-14T02:18:10.269Z,10.15
2023-02-14T02:20:55.570Z,10.10
2023-02-14T02:23:32.149Z,11.60
2023-02-14T02:26:46.216Z,11.60
2023-02-14T02:29:28.064Z,8.77
2023-02-14T02:32:10.060Z,9.57
2023-02-14T02:35:09.132Z,9.25
2023-02-14T02:37:57.684Z,9.80
2023-02-14T02:40:45.632Z,9.43
2023-02-14T02:43:49.690Z,11.38
2023-02-14T02:46:50.198Z,9.95
2023-02-14T02:49:36.563Z,9.45
2023-02-14T02:52:27.453Z,11.18
2023-02-14T02:55:00.364Z,11.30
2023-02-14T02:57:33.561Z,11.55
2023-02-14T03:00:03.493Z,8.82
2023-02-14T03:02:54.800Z,8.70
2023-02-14T03:05:22.343Z,14.68
2023-02-14T03:07:51.002Z,10.73
2023-02-14T03:10:21.902Z,10.25
2023-02-14T03:13:17.985Z,10.52
2023-02-14T03:16:03.311Z,10.10
2023-02-14T03:19:23.753Z,10.02
2023-02-14T03:22:00.813Z,10.23
2023-02-14T03:24:51.805Z,11.50
2023-02-14T03:27:33.120Z,10.93
2023-02-14T03:30:18.015Z,10.98
2023-02-14T03:32:58.117Z,11.55
2023-02-14T03:35:43.659Z,9.75
2023-02-14T03:38:15.503Z,8.35
2023-02-14T03:40:49.401Z,10.63
2023-02-14T03:43:25.340Z,9.68
2023-02-14T03:45:58.158Z,10.82
2023-02-14T03:48:27.519Z,11.60
2023-02-14T03:50:55.548Z,13.35
2023-02-14T03:53:26.713Z,9.25
2023-02-14T03:56:02.234Z,9.73
2023-02-14T03:58:34.587Z,9.65
2023-02-14T04:01:08.553Z,9.88
2023-02-14T04:03:41.201Z,9.40
2023-02-14T04:06:08.482Z,8.93
2023-02-14T04:08:35.255Z,11.57
2023-02-14T04:11:03.822Z,14.13
2023-02-14T04:13:30.338Z,11.45
2023-02-14T04:15:57.225Z,10.20
2023-02-14T04:18:42.331Z,10.93
2023-02-14T04:21:08.807Z,13.07
2023-02-14T04:23:35.329Z,8.68
2023-02-14T04:26:03.662Z,12.20
2023-02-14T04:28:30.755Z,9.88
2023-02-14T04:31:00.894Z,10.88
2023-02-14T04:33:28.453Z,11.23
2023-02-14T04:35:54.892Z,11.35
2023-02-14T04:38:21.615Z,11.77
2023-02-14T04:40:51.963Z,8.75
2023-02-14T04:43:19.250Z,12.63
2023-02-14T04:45:46.959Z,9.90
2023-02-14T04:48:13.461Z,10.02
2023-02-14T04:50:39.928Z,12.43
2023-02-14T04:53:06.420Z,12.35
2023-02-14T04:55:32.915Z,10.57
2023-02-14T04:57:59.343Z,12.25
2023-02-14T05:00:26.080Z,11.07
2023-02-14T05:02:52.613Z,11.05
2023-02-14T05:05:19.138Z,11.93
2023-02-14T05:07:47.818Z,10.48
2023-02-14T05:10:14.952Z,9.63
2023-02-14T05:12:41.658Z,11.25
2023-02-14T05:15:09.073Z,10.07
2023-02-14T05:17:36.183Z,13.63
2023-02-14T05:20:04.361Z,8.50
2023-02-14T05:22:30.951Z,10.00
2023-02-14T05:24:57.615Z,10.88
2023-02-14T05:27:24.292Z,10.43
2023-02-14T05:29:50.836Z,11.65
2023-02-14T05:32:17.758Z,11.05
2023-02-14T05:34:44.274Z,12.38
2023-02-14T05:37:10.761Z,12.70
2023-02-14T05:39:37.474Z,10.43
2023-02-14T05:42:04.108Z,10.35
2023-02-14T05:44:30.688Z,11.38
2023-02-14T05:46:57.524Z,12.27
2023-02-14T05:49:24.097Z,12.50
2023-02-14T05:51:50.563Z,13.05
2023-02-14T05:54:17.059Z,13.88
2023-02-14T05:56:43.515Z,10.93
2023-02-14T05:59:10.069Z,14.25
2023-02-14T06:01:36.497Z,12.10
2023-02-14T06:04:03.028Z,12.20
2023-02-14T06:06:31.919Z,14.32
2023-02-14T06:08:58.397Z,12.75
2023-02-14T06:11:25.003Z,21.13
2023-02-14T06:13:51.474Z,15.10
2023-02-14T06:16:18.328Z,14.73
2023-02-14T06:18:44.829Z,14.50
2023-02-14T06:21:11.444Z,22.98
2023-02-14T06:23:37.915Z,24.65
2023-02-14T06:26:04.561Z,14.50
2023-02-14T06:28:30.988Z,11.85
2023-02-14T06:30:57.655Z,9.80
2023-02-14T06:33:24.214Z,12.73
2023-02-14T06:35:53.697Z,11.43
2023-02-14T06:38:20.141Z,19.58
2023-02-14T06:40:46.806Z,22.15
2023-02-14T06:43:13.294Z,17.58
2023-02-14T06:45:43.623Z,15.75
2023-02-14T06:48:10.257Z,22.92
2023-02-14T06:50:36.809Z,17.42
2023-02-14T06:53:03.445Z,14.93
2023-02-14T06:55:29.984Z,24.75
2023-02-14T06:57:56.442Z,17.17
2023-02-14T07:00:25.501Z,15.38
2023-02-14T07:02:52.714Z,10.18
2023-02-14T07:05:19.406Z,20.52
2023-02-14T07:07:46.416Z,18.77
2023-02-14T07:10:13.460Z,16.05
2023-02-14T07:12:40.316Z,12.77
2023-02-14T07:15:12.394Z,12.95
2023-02-14T07:17:39.037Z,14.48
2023-02-14T07:20:07.545Z,13.15
2023-02-14T07:22:34.520Z,17.25
2023-02-14T07:25:01.474Z,9.57
2023-02-14T07:27:28.482Z,9.10
2023-02-14T07:29:55.127Z,16.70
2023-02-14T07:32:23.382Z,12.07
2023-02-14T07:34:50.789Z,21.50
2023-02-14T07:37:18.123Z,11.35
2023-02-14T07:39:45.479Z,14.98
2023-02-14T07:42:12.169Z,15.45
2023-02-14T07:44:39.245Z,31.70
2023-02-14T07:47:07.152Z,7.65
2023-02-14T07:49:33.647Z,12.27
2023-02-14T07:52:00.133Z,9.07
2023-02-14T07:54:26.700Z,12.15
2023-02-14T07:56:53.172Z,10.52
2023-02-14T07:59:20.097Z,10.48
2023-02-14T08:01:46.675Z,23.00
2023-02-14T08:04:15.927Z,6.57
2023-02-14T08:06:43.360Z,10.23
2023-02-14T08:09:10.271Z,22.35
2023-02-14T08:11:56.177Z,12.15
2023-02-14T08:14:23.240Z,8.27
2023-02-14T08:16:49.693Z,15.73
2023-02-14T08:19:16.277Z,9.13
2023-02-14T08:21:42.762Z,8.18
2023-02-14T08:24:09.240Z,10.60
2023-02-14T08:26:36.990Z,15.82
2023-02-14T08:29:03.548Z,12.13
2023-02-14T08:31:36.453Z,11.57
2023-02-14T08:34:05.684Z,21.00
2023-02-14T08:36:32.962Z,18.40
2023-02-14T08:38:59.452Z,12.23
2023-02-14T08:41:25.966Z,5.35
2023-02-14T08:43:52.583Z,8.55
2023-02-14T08:46:19.416Z,6.32
2023-02-14T08:48:46.105Z,12.05
2023-02-14T08:51:14.516Z,11.45
2023-02-14T08:53:41.955Z,6.47
2023-02-14T08:56:11.489Z,19.88
2023-02-14T08:58:38.792Z,7.35
2023-02-14T09:01:23.737Z,7.50
2023-02-14T09:03:50.552Z,5.82
2023-02-14T09:06:17.824Z,10.45
2023-02-14T09:08:44.972Z,6.28
2023-02-14T09:11:14.842Z,11.68
2023-02-14T09:13:45.220Z,18.63
2023-02-14T09:16:13.073Z,5.75
2023-02-14T09:18:40.216Z,12.43
2023-02-14T09:21:09.367Z,9.02
2023-02-14T09:23:36.031Z,6.97
2023-02-14T09:26:06.222Z,6.75
2023-02-14T09:28:33.208Z,6.13
2023-02-14T09:31:09.070Z,6.22
2023-02-14T09:33:35.640Z,6.85
2023-02-14T09:36:13.979Z,6.25
2023-02-14T09:38:40.463Z,6.53
2023-02-14T09:41:09.398Z,4.95
2023-02-14T09:43:44.850Z,6.57
2023-02-14T09:46:16.084Z,8.32
2023-02-14T09:48:47.238Z,4.57
2023-02-14T09:51:20.270Z,8.57
2023-02-14T09:54:01.622Z,6.65
2023-02-14T09:56:51.686Z,6.53
2023-02-14T09:59:29.509Z,6.45
2023-02-14T10:02:29.689Z,8.23
2023-02-14T10:05:15.062Z,6.47
2023-02-14T10:07:58.227Z,6.30
2023-02-14T10:10:41.429Z,5.97
2023-02-14T10:13:33.514Z,7.40
2023-02-14T10:16:05.072Z,9.98
2023-02-14T10:18:46.122Z,7.38
2023-02-14T10:21:24.646Z,7.78
2023-02-14T10:23:58.121Z,5.97
2023-02-14T10:26:38.177Z,5.95
2023-02-14T10:29:08.933Z,9.55
2023-02-14T10:32:01.728Z,6.90
2023-02-14T10:34:37.462Z,8.32
2023-02-14T10:37:11.198Z,6.30
2023-02-14T10:40:16.472Z,7.60
2023-02-14T10:43:05.747Z,7.97
2023-02-14T10:45:45.509Z,7.80
2023-02-14T10:48:22.590Z,8.13
2023-02-14T10:51:03.761Z,12.13
2023-02-14T10:53:59.713Z,7.05
2023-02-14T10:56:38.572Z,8.40
2023-02-14T10:59:18.673Z,8.95
2023-02-14T11:01:46.001Z,10.27
2023-02-14T11:04:15.519Z,8.18
2023-02-14T11:06:42.103Z,6.32
2023-02-14T11:09:11.001Z,9.55
2023-02-14T11:11:45.741Z,8.30
2023-02-14T11:14:23.846Z,9.27
2023-02-14T11:16:51.979Z,8.38
2023-02-14T11:19:26.325Z,8.73
2023-02-14T11:21:57.907Z,8.82
2023-02-14T11:24:38.178Z,8.15
2023-02-14T11:27:10.617Z,7.63
2023-02-14T11:29:44.931Z,7.28
2023-02-14T11:32:20.726Z,9.80
2023-02-14T11:35:18.434Z,8.75
2023-02-14T11:37:53.635Z,8.60
2023-02-14T11:40:29.118Z,10.05
2023-02-14T11:43:13.433Z,10.18
2023-02-14T11:45:43.095Z,11.40
2023-02-14T11:48:22.398Z,10.30
2023-02-14T11:51:01.252Z,8.27
2023-02-14T11:53:40.058Z,9.38
2023-02-14T11:56:06.850Z,12.10
2023-02-14T11:58:36.475Z,8.25
2023-02-14T12:01:04.100Z,12.00
2023-02-14T12:03:40.130Z,10.20
2023-02-14T12:06:06.713Z,11.32
2023-02-14T12:08:33.295Z,8.57
2023-02-14T12:11:17.836Z,9.77
2023-02-14T12:13:52.194Z,8.98
2023-02-14T12:16:28.261Z,9.50
2023-02-14T12:19:01.197Z,11.27
2023-02-14T12:21:30.608Z,8.85
2023-02-14T12:24:03.389Z,8.38
2023-02-14T12:26:42.101Z,9.77
2023-02-14T12:29:34.927Z,9.38
2023-02-14T12:32:13.240Z,8.73
2023-02-14T12:34:39.914Z,8.13
2023-02-14T12:37:12.078Z,10.93
2023-02-14T12:39:56.968Z,10.23
2023-02-14T12:42:44.871Z,8.52
2023-02-14T12:45:29.501Z,10.88
2023-02-14T12:48:07.690Z,8.60
2023-02-14T12:51:05.989Z,12.13
2023-02-14T12:53:48.612Z,12.85
2023-02-14T12:56:34.099Z,8.63
2023-02-14T12:59:07.443Z,8.52
2023-02-14T13:01:43.067Z,6.55
2023-02-14T13:04:40.830Z,9.90
2023-02-14T13:07:29.669Z,8.35
2023-02-14T13:10:02.426Z,9.57
2023-02-14T13:12:35.102Z,8.02
2023-02-14T13:15:19.112Z,8.70
2023-02-14T13:18:03.207Z,9.73
2023-02-14T13:20:53.514Z,9.38
2023-02-14T13:23:42.056Z,8.65
2023-02-14T13:26:17.877Z,9.13
2023-02-14T13:28:55.506Z,8.32
2023-02-14T13:31:22.537Z,10.63
2023-02-14T13:33:54.064Z,8.77
2023-02-14T13:36:21.007Z,7.20
2023-02-14T13:41:23.863Z,8.35
2023-02-14T13:43:56.374Z,6.63
2023-02-14T13:46:32.219Z,9.27
2023-02-14T13:49:05.678Z,8.50
2023-02-14T13:51:48.921Z,8.40
2023-02-14T13:54:43.006Z,7.82
2023-02-14T13:57:34.030Z,7.97
2023-02-14T14:00:19.012Z,8.27
2023-02-14T14:02:53.066Z,7.32
2023-02-14T14:05:42.681Z,7.55
2023-02-14T14:08:21.198Z,7.70
2023-02-14T14:10:55.501Z,8.48
2023-02-14T14:13:40.284Z,9.90
2023-02-14T14:16:26.700Z,8.68
2023-02-14T14:19:21.904Z,8.52
2023-02-14T14:22:07.309Z,10.90
2023-02-14T14:24:39.414Z,10.57
2023-02-14T14:27:19.480Z,9.55
2023-02-14T14:30:05.757Z,9.98
2023-02-14T14:32:38.163Z,11.05
2023-02-14T14:35:16.916Z,10.98
2023-02-14T14:37:58.921Z,11.45
2023-02-14T14:40:34.614Z,12.82
2023-02-14T14:43:14.157Z,10.13
2023-02-14T14:45:41.744Z,12.02
2023-02-14T14:48:17.236Z,12.27
2023-02-14T14:50:46.242Z,15.82
2023-02-14T14:53:29.284Z,15.15
2023-02-14T14:55:56.818Z,17.40
2023-02-14T14:58:38.852Z,17.88
2023-02-14T15:01:08.727Z,15.60
2023-02-14T15:03:35.293Z,17.90
2023-02-14T15:06:07.527Z,14.98
2023-02-14T15:08:35.211Z,16.75
2023-02-14T15:11:42.998Z,18.67
2023-02-14T15:14:24.350Z,20.95
2023-02-14T15:16:53.900Z,15.88
2023-02-14T15:19:34.418Z,16.83
2023-02-14T15:22:07.487Z,19.98
2023-02-14T15:24:37.757Z,19.58
2023-02-14T15:27:04.936Z,21.33
2023-02-14T15:29:33.064Z,21.95
2023-02-14T15:32:03.160Z,21.40
2023-02-14T15:34:38.244Z,22.42
2023-02-14T15:37:07.073Z,22.38
2023-02-14T15:39:40.064Z,21.95
2023-02-14T15:42:06.649Z,15.98
2023-02-14T15:44:33.274Z,17.38
2023-02-14T15:47:03.223Z,20.92
2023-02-14T15:49:41.237Z,18.10
2023-02-14T15:52:07.872Z,18.80
2023-02-14T15:54:41.352Z,18.42
2023-02-14T15:57:19.976Z,17.27
2023-02-14T15:59:46.931Z,19.98
2023-02-14T16:02:48.906Z,21.30
2023-02-14T16:05:24.525Z,20.85
2023-02-14T16:08:03.625Z,23.45
2023-02-14T16:10:35.775Z,20.38
2023-02-14T16:13:19.050Z,24.02
2023-02-14T16:16:01.950Z,26.35
2023-02-14T16:18:43.142Z,24.92
2023-02-14T16:21:35.067Z,26.42
2023-02-14T16:24:08.058Z,23.08
2023-02-14T16:26:37.954Z,21.40
2023-02-14T16:29:10.611Z,21.60
2023-02-14T16:32:01.238Z,20.77
2023-02-14T16:34:31.704Z,26.20
2023-02-14T16:36:58.262Z,25.30
2023-02-14T16:39:26.488Z,21.98
2023-02-14T16:41:56.368Z,22.75
2023-02-14T16:44:22.855Z,24.70
2023-02-14T16:46:49.589Z,25.13
2023-02-14T16:49:17.136Z,25.80
2023-02-14T16:51:59.850Z,26.38
2023-02-14T16:54:28.848Z,26.08
2023-02-14T16:57:01.776Z,32.67
2023-02-14T16:59:28.354Z,22.98
2023-02-14T17:01:57.428Z,28.20
2023-02-14T17:04:27.284Z,24.42
2023-02-14T17:06:57.135Z,26.15
2023-02-14T17:09:32.075Z,26.98
2023-02-14T17:12:03.442Z,25.58
2023-02-14T17:14:36.881Z,22.65
2023-02-14T17:17:03.806Z,26.42
2023-02-14T17:19:31.994Z,28.13
2023-02-14T17:21:59.327Z,30.48
2023-02-14T17:24:26.163Z,27.35
2023-02-14T17:26:52.919Z,29.15
2023-02-14T17:29:19.716Z,34.35
2023-02-14T17:31:46.648Z,28.42
2023-02-14T17:34:13.317Z,31.83
2023-02-14T17:36:39.781Z,34.03
2023-02-14T17:39:06.496Z,43.33
2023-02-14T17:41:33.172Z,38.42
2023-02-14T17:44:01.765Z,24.92
2023-02-14T17:46:33.517Z,38.72
2023-02-14T17:49:02.633Z,26.15
2023-02-14T17:51:29.566Z,31.58
2023-02-14T17:53:58.985Z,39.78
2023-02-14T17:56:27.016Z,27.08
2023-02-14T17:58:55.165Z,39.83
2023-02-14T18:01:25.358Z,27.83
2023-02-14T18:03:53.801Z,26.20
2023-02-14T18:06:22.944Z,30.60
2023-02-14T18:08:53.097Z,27.23
2023-02-14T18:11:21.745Z,22.27
2023-02-14T18:13:48.679Z,19.77
2023-02-14T18:16:18.453Z,23.38
2023-02-14T18:18:45.575Z,20.08
2023-02-14T18:21:14.334Z,22.00
2023-02-14T18:23:41.803Z,21.75
2023-02-14T18:26:12.379Z,22.73
2023-02-14T18:28:39.487Z,23.13
2023-02-14T18:31:09.549Z,21.30
2023-02-14T18:33:36.716Z,23.77
2023-02-14T18:36:06.988Z,22.30
2023-02-14T18:38:34.559Z,22.70
2023-02-14T18:41:08.881Z,22.10
2023-02-14T18:43:37.178Z,24.15
2023-02-14T18:46:31.605Z,25.13
2023-02-14T18:48:58.939Z,21.50
2023-02-14T18:51:28.881Z,19.75
2023-02-14T18:53:57.706Z,17.98
2023-02-14T18:56:29.010Z,22.98
2023-02-14T18:58:59.280Z,21.42
2023-02-14T19:01:29.260Z,21.35
2023-02-14T19:03:56.949Z,31.10
2023-02-14T19:06:23.643Z,17.25
2023-02-14T19:08:50.296Z,12.23
2023-02-14T19:11:20.639Z,16.40
2023-02-14T19:13:51.062Z,49.47
2023-02-14T19:16:27.285Z,42.25
2023-02-14T19:18:54.571Z,38.22
2023-02-14T19:21:27.138Z,32.42
2023-02-14T19:23:57.582Z,37.28
2023-02-14T19:26:26.701Z,31.30
2023-02-14T19:28:59.027Z,27.85
2023-02-14T19:31:26.568Z,25.15
2023-02-14T19:33:54.304Z,25.50
2023-02-14T19:36:24.840Z,27.95
2023-02-14T19:38:53.377Z,34.15
2023-02-14T19:41:30.577Z,33.38
2023-02-14T19:44:01.823Z,27.60
2023-02-14T19:46:29.164Z,36.55
2023-02-14T19:48:57.451Z,34.08
2023-02-14T19:51:25.798Z,28.30
2023-02-14T19:53:53.408Z,27.35
2023-02-14T19:56:22.232Z,29.70
2023-02-14T19:58:50.423Z,27.65
2023-02-14T20:01:24.432Z,30.08
2023-02-14T20:03:52.570Z,43.05
2023-02-14T20:06:20.924Z,39.05
2023-02-14T20:08:47.757Z,39.03
2023-02-14T20:11:32.811Z,35.03
2023-02-14T20:14:00.685Z,32.53
2023-02-14T20:16:29.345Z,33.13
2023-02-14T20:18:56.855Z,31.13
2023-02-14T20:21:28.488Z,34.90
2023-02-14T20:24:00.875Z,30.20
2023-02-14T20:26:32.610Z,30.58
2023-02-14T20:29:00.654Z,31.80
2023-02-14T20:31:27.388Z,30.38
2023-02-14T20:33:56.210Z,31.17
2023-02-14T20:36:23.163Z,28.42
2023-02-14T20:38:56.527Z,28.92
2023-02-14T20:41:23.545Z,26.80
2023-02-14T20:43:50.507Z,30.88
2023-02-14T20:46:17.052Z,42.65
2023-02-14T20:48:43.789Z,32.88
2023-02-14T20:51:18.760Z,39.90
2023-02-14T20:53:46.162Z,37.40
2023-02-14T20:56:13.929Z,39.20
2023-02-14T20:58:41.621Z,37.78
2023-02-14T21:01:15.539Z,39.60
2023-02-14T21:03:46.821Z,30.80
2023-02-14T21:06:16.450Z,30.02
2023-02-14T21:08:44.181Z,31.40
2023-02-14T21:11:13.251Z,33.88
2023-02-14T21:13:40.383Z,35.72
2023-02-14T21:16:15.022Z,32.60
2023-02-14T21:18:42.914Z,33.72
2023-02-14T21:21:15.387Z,33.50
2023-02-14T21:23:42.177Z,29.35
2023-02-14T21:26:10.402Z,34.50
2023-02-14T21:28:36.908Z,32.53
2023-02-14T21:31:09.396Z,31.75
2023-02-14T21:33:37.016Z,28.23
2023-02-14T21:36:14.157Z,31.52
2023-02-14T21:38:41.317Z,33.03
2023-02-14T21:41:19.618Z,35.65
2023-02-14T21:43:48.792Z,31.60
2023-02-14T21:46:27.054Z,32.50
2023-02-14T21:49:13.944Z,35.05
2023-02-14T21:51:41.341Z,32.60
2023-02-14T21:54:08.892Z,32.72
2023-02-14T21:56:37.001Z,27.55
2023-02-14T21:59:04.503Z,30.30
2023-02-14T22:01:33.592Z,24.85
2023-02-14T22:04:01.172Z,31.42
2023-02-14T22:06:28.821Z,28.10
2023-02-14T22:08:57.174Z,28.20
2023-02-14T22:11:25.348Z,29.92
2023-02-14T22:13:51.946Z,26.58
2023-02-14T22:16:20.249Z,22.85
2023-02-14T22:18:49.464Z,24.30
2023-02-14T22:21:21.882Z,25.13
2023-02-14T22:23:50.221Z,28.70
2023-02-14T22:26:20.284Z,27.60
2023-02-14T22:28:48.434Z,29.05
2023-02-14T22:31:17.325Z,25.35
2023-02-14T22:33:44.604Z,35.55
2023-02-14T22:36:11.280Z,60.83
2023-02-14T22:38:38.268Z,35.25
2023-02-14T22:41:10.250Z,38.08
2023-02-14T22:43:40.326Z,37.00
2023-02-14T22:46:12.321Z,36.25
2023-02-14T22:48:39.538Z,40.55
2023-02-14T22:51:37.834Z,34.65
2023-02-14T22:54:12.328Z,35.13
2023-02-14T22:56:51.181Z,37.28
2023-02-14T22:59:25.082Z,37.67
2023-02-14T23:01:53.007Z,37.65
2023-02-14T23:04:22.080Z,35.58
2023-02-14T23:06:49.159Z,31.45
2023-02-14T23:09:15.920Z,37.90
2023-02-14T23:11:44.616Z,34.53
2023-02-14T23:14:32.232Z,29.83
2023-02-14T23:17:17.432Z,35.72
2023-02-14T23:20:03.606Z,34.97
2023-02-14T23:22:33.345Z,34.50
2023-02-14T23:25:01.927Z,36.63
2023-02-14T23:27:36.519Z,33.72
2023-02-14T23:30:05.553Z,33.03
2023-02-14T23:32:33.273Z,36.10
2023-02-14T23:34:59.800Z,34.58
2023-02-14T23:37:27.060Z,32.30
2023-02-14T23:39:53.935Z,28.58
2023-02-14T23:42:20.613Z,31.38
2023-02-14T23:44:47.539Z,31.67
2023-02-14T23:47:15.350Z,36.75
2023-02-14T23:49:42.603Z,31.20
2023-02-14T23:52:11.567Z,28.02
2023-02-14T23:54:38.491Z,27.98
2023-02-14T23:57:07.476Z,25.27
2023-02-14T23:59:34.871Z,26.00
